Time;durP1;ratioP1;P1;durP2;ratioP2;P2;SDS_P1;SDS_P2;PMS_P1;PMS_P2;Temp;Humidity;BMP_temperature;BMP_pressure;BME280_temperature;BME280_humidity;BME280_pressure;Samples;Min_cycle;Max_cycle;Signal;HPM_P1;HPM_P2
2021/01/09 00:02:14;;;;;;;30.38;28.08;;;2.80;90.50;;;;;;5029694;28;20192;-78
2021/01/09 00:04:41;;;;;;;29.95;27.55;;;2.80;92.20;;;;;;5015760;28;20206;-77
2021/01/09 00:07:07;;;;;;;29.75;27.48;;;2.80;89.70;;;;;;5015759;28;20230;-78
2021/01/09 00:09:35;;;;;;;31.23;28.90;;;2.80;89.30;;;;;;5016272;28;20216;-77
2021/01/09 00:12:01;;;;;;;30.00;27.80;;;2.90;87.70;;;;;;5019931;28;20190;-77
2021/01/09 00:14:28;;;;;;;30.50;28.02;;;2.90;86.40;;;;;;5035882;28;20200;-78
2021/01/09 00:16:55;;;;;;;31.00;28.65;;;2.80;85.70;;;;;;5035775;28;20578;-77
2021/01/09 00:19:22;;;;;;;29.80;27.45;;;2.80;86.00;;;;;;5035486;28;20213;-77
2021/01/09 00:21:48;;;;;;;29.92;27.52;;;2.80;87.70;;;;;;5035489;28;20335;-77
2021/01/09 00:24:15;;;;;;;1999.90;420.33;;;2.80;87.20;;;;;;5027974;28;20194;-77
2021/01/09 00:26:42;;;;;;;29.33;26.92;;;2.80;94.30;;;;;;5015393;28;20218;-78
2021/01/09 00:29:09;;;;;;;31.70;28.98;;;2.80;91.40;;;;;;5015703;28;20197;-77
2021/01/09 00:31:35;;;;;;;29.23;26.77;;;2.70;87.70;;;;;;5015640;28;20220;-78
2021/01/09 00:34:03;;;;;;;31.60;29.05;;;2.70;86.50;;;;;;5020767;28;20255;-77
2021/01/09 00:36:29;;;;;;;30.33;28.05;;;2.80;85.00;;;;;;5035158;28;20307;-77
2021/01/09 00:38:56;;;;;;;29.77;27.45;;;2.80;84.70;;;;;;5035208;28;20289;-77
2021/01/09 00:41:26;;;;;;;1875.18;268.48;;;2.80;83.80;;;;;;5035354;28;20667;-77
2021/01/09 00:43:53;;;;;;;29.60;27.10;;;2.70;90.50;;;;;;5031014;28;20197;-77
2021/01/09 00:46:19;;;;;;;30.33;27.85;;;2.60;91.60;;;;;;5015198;28;20695;-77
2021/01/09 00:48:46;;;;;;;29.00;26.83;;;2.60;90.00;;;;;;5015585;28;20229;-77
2021/01/09 00:51:14;;;;;;;29.05;26.85;;;2.60;89.60;;;;;;5025841;28;20198;-77
2021/01/09 00:53:40;;;;;;;29.98;27.60;;;2.60;88.10;;;;;;5027634;28;20212;-77
2021/01/09 00:56:07;;;;;;;30.40;28.05;;;2.60;86.90;;;;;;5043356;28;20762;-77
2021/01/09 00:58:34;;;;;;;30.20;27.73;;;2.60;86.60;;;;;;5041955;28;20197;-77
2021/01/09 01:01:01;;;;;;;30.83;28.15;;;2.60;86.90;;;;;;5042880;28;20221;-77
2021/01/09 01:03:27;;;;;;;30.13;27.90;;;2.60;86.80;;;;;;5043522;28;20635;-77
2021/01/09 01:05:54;;;;;;;30.23;27.92;;;2.70;86.30;;;;;;5025806;28;20529;-77
2021/01/09 01:08:21;;;;;;;31.67;29.17;;;2.80;85.00;;;;;;5024843;28;20209;-77
2021/01/09 01:10:48;;;;;;;31.45;28.83;;;2.70;85.70;;;;;;5022943;28;20194;-77
2021/01/09 01:13:15;;;;;;;51.42;29.38;;;2.80;84.80;;;;;;5017206;28;20202;-77
2021/01/09 01:15:42;;;;;;;29.50;27.35;;;2.90;86.40;;;;;;5034413;28;20662;-78
2021/01/09 01:18:08;;;;;;;30.10;27.80;;;2.90;88.40;;;;;;5036112;28;20197;-78
2021/01/09 01:20:34;;;;;;;30.05;27.83;;;2.90;87.60;;;;;;5035094;28;20219;-77
2021/01/09 01:23:01;;;;;;;29.83;27.63;;;3.00;84.40;;;;;;5037164;28;20204;-78
2021/01/09 01:25:28;;;;;;;29.90;27.80;;;2.80;82.90;;;;;;5036580;28;20233;-78
2021/01/09 01:27:54;;;;;;;31.25;28.48;;;2.70;83.20;;;;;;5037719;28;20861;-77
2021/01/09 01:30:21;;;;;;;29.88;27.60;;;2.60;83.50;;;;;;5022347;28;20198;-78
2021/01/09 01:32:47;;;;;;;30.88;28.33;;;2.60;83.70;;;;;;5015691;28;20194;-78
2021/01/09 01:35:14;;;;;;;32.47;29.73;;;2.70;83.10;;;;;;5015195;28;20209;-78
2021/01/09 01:37:40;;;;;;;32.13;29.73;;;2.70;82.80;;;;;;5014251;28;20218;-78
2021/01/09 01:40:08;;;;;;;30.27;28.10;;;2.60;83.00;;;;;;5024006;28;20221;-78
2021/01/09 01:42:35;;;;;;;29.45;27.45;;;2.60;83.20;;;;;;5033595;28;20201;-78
2021/01/09 01:45:02;;;;;;;29.33;27.30;;;2.60;83.40;;;;;;5033704;28;20201;-78
2021/01/09 01:47:28;;;;;;;31.15;28.58;;;2.60;83.20;;;;;;5033312;28;20597;-78
2021/01/09 01:49:55;;;;;;;29.15;26.90;;;2.60;83.40;;;;;;5025171;28;20190;-77
2021/01/09 01:52:21;;;;;;;30.88;28.58;;;2.60;83.40;;;;;;5013926;28;20560;-78
2021/01/09 01:54:48;;;;;;;30.02;27.92;;;2.50;83.60;;;;;;5013574;28;20198;-78
2021/01/09 01:57:15;;;;;;;30.20;27.92;;;2.50;84.20;;;;;;5013128;28;20222;-77
2021/01/09 01:59:42;;;;;;;29.52;27.38;;;2.50;84.00;;;;;;5019347;28;20773;-78
2021/01/09 02:02:11;;;;;;;31.50;29.10;;;2.60;83.60;;;;;;5032531;28;20212;-78
2021/01/09 02:04:37;;;;;;;30.48;28.23;;;2.60;83.70;;;;;;5032835;28;20193;-78
2021/01/09 02:07:08;;;;;;;32.75;30.13;;;2.50;84.10;;;;;;5032771;28;20316;-78
2021/01/09 02:09:40;;;;;;;77.25;34.90;;;2.50;84.50;;;;;;5027844;28;20607;-78
2021/01/09 02:12:12;;;;;;;32.33;29.45;;;2.40;87.00;;;;;;5013609;28;20198;-78
2021/01/09 02:14:39;;;;;;;31.67;29.27;;;2.50;86.30;;;;;;5013538;28;20201;-77
2021/01/09 02:17:08;;;;;;;32.60;30.00;;;2.50;85.40;;;;;;5013110;28;20218;-78
2021/01/09 02:19:38;;;;;;;32.17;29.58;;;2.60;85.90;;;;;;5017865;28;20220;-78
2021/01/09 02:22:05;;;;;;;32.97;30.08;;;2.60;85.50;;;;;;5032555;28;20890;-78
2021/01/09 02:24:33;;;;;;;33.17;30.48;;;2.50;85.10;;;;;;5032663;28;20670;-78
2021/01/09 02:27:00;;;;;;;32.08;29.60;;;2.50;85.10;;;;;;5032615;28;20274;-78
2021/01/09 02:29:31;;;;;;;32.00;29.45;;;2.60;85.00;;;;;;5031229;28;20655;-78
2021/01/09 02:32:01;;;;;;;31.70;29.20;;;2.50;85.00;;;;;;5020831;28;20221;-78
2021/01/09 02:34:33;;;;;;;33.38;30.40;;;2.50;85.00;;;;;;5013168;28;20259;-78
2021/01/09 02:37:00;;;;;;;30.23;27.70;;;2.60;84.70;;;;;;5013084;28;20218;-78
2021/01/09 02:39:26;;;;;;;33.83;30.45;;;2.60;84.60;;;;;;5012998;28;20683;-78
2021/01/09 02:41:55;;;;;;;32.35;29.85;;;2.50;84.70;;;;;;5022987;28;20200;-78
2021/01/09 02:44:22;;;;;;;33.90;31.13;;;2.50;84.90;;;;;;5033118;28;20662;-77
2021/01/09 02:46:48;;;;;;;32.58;29.88;;;2.50;85.20;;;;;;5032664;28;20221;-78
2021/01/09 02:49:15;;;;;;;33.50;30.90;;;2.50;85.00;;;;;;5035545;28;20201;-78
2021/01/09 02:51:41;;;;;;;33.03;30.42;;;2.60;84.60;;;;;;5035051;28;20197;-78
2021/01/09 02:54:07;;;;;;;34.65;31.63;;;2.60;84.40;;;;;;5032706;28;20558;-77
2021/01/09 02:56:34;;;;;;;34.17;31.20;;;2.50;84.90;;;;;;5032552;28;20307;-78
2021/01/09 02:59:01;;;;;;;31.83;29.33;;;2.50;85.50;;;;;;5032346;28;20205;-78
2021/01/09 03:01:28;;;;;;;34.67;31.67;;;2.60;85.70;;;;;;5026078;28;20222;-78
2021/01/09 03:03:54;;;;;;;32.78;29.85;;;2.50;85.10;;;;;;5013901;28;20190;-78
2021/01/09 03:06:21;;;;;;;33.47;30.67;;;2.50;85.00;;;;;;5012914;28;20267;-78
2021/01/09 03:08:47;;;;;;;33.95;31.17;;;2.50;85.10;;;;;;5013941;28;20283;-78
2021/01/09 03:11:14;;;;;;;32.90;30.20;;;2.40;85.30;;;;;;5019689;28;20186;-78
2021/01/09 03:13:41;;;;;;;34.05;31.15;;;2.40;85.40;;;;;;5034558;28;20201;-78
2021/01/09 03:16:08;;;;;;;32.42;29.98;;;2.50;85.70;;;;;;5034127;28;20217;-78
2021/01/09 03:18:35;;;;;;;33.47;30.77;;;2.40;85.70;;;;;;5034428;28;20235;-78
2021/01/09 03:21:01;;;;;;;34.80;31.50;;;2.50;85.60;;;;;;5038297;28;20209;-78
2021/01/09 03:23:27;;;;;;;35.70;32.47;;;2.50;85.40;;;;;;5029843;28;20194;-78
2021/01/09 03:25:54;;;;;;;35.00;31.98;;;2.60;85.10;;;;;;5016353;28;20202;-78
2021/01/09 03:28:20;;;;;;;31.92;29.45;;;2.60;84.80;;;;;;5016702;28;20202;-78
2021/01/09 03:30:47;;;;;;;34.45;31.40;;;2.40;85.80;;;;;;5016533;28;20197;-78
2021/01/09 03:33:15;;;;;;;33.08;30.52;;;2.20;86.20;;;;;;5021188;28;20192;-78
2021/01/09 03:35:41;;;;;;;34.42;31.45;;;2.10;87.10;;;;;;5035975;28;20205;-78
2021/01/09 03:38:07;;;;;;;34.67;31.38;;;2.10;87.30;;;;;;5036267;28;20208;-78
2021/01/09 03:40:34;;;;;;;36.75;32.97;;;2.10;87.50;;;;;;5036408;28;20219;-78
2021/01/09 03:43:00;;;;;;;35.33;32.42;;;2.20;87.30;;;;;;5038409;28;20300;-78
2021/01/09 03:45:27;;;;;;;36.03;32.80;;;2.20;86.80;;;;;;5040617;28;20209;-78
2021/01/09 03:47:53;;;;;;;36.17;32.78;;;2.30;86.60;;;;;;5039887;28;20217;-78
2021/01/09 03:50:20;;;;;;;35.45;32.15;;;2.20;86.90;;;;;;5040161;28;20216;-77
2021/01/09 03:52:46;;;;;;;36.08;32.90;;;2.20;86.90;;;;;;5040329;28;20207;-78
2021/01/09 03:55:13;;;;;;;36.08;32.58;;;2.30;86.90;;;;;;5021856;28;20206;-78
2021/01/09 03:57:39;;;;;;;37.70;33.92;;;2.30;86.80;;;;;;5020657;28;20699;-78
2021/01/09 04:00:07;;;;;;;37.03;33.70;;;2.40;87.40;;;;;;5019926;28;20224;-78
2021/01/09 04:02:34;;;;;;;36.22;32.95;;;2.40;86.30;;;;;;5020295;28;20733;-78
2021/01/09 04:05:01;;;;;;;35.03;31.73;;;2.30;88.40;;;;;;5034159;28;20664;-78
2021/01/09 04:07:28;;;;;;;35.08;32.00;;;2.40;88.90;;;;;;5021029;28;20222;-77
2021/01/09 04:09:54;;;;;;;35.30;32.20;;;2.40;87.20;;;;;;5024079;28;20222;-77
2021/01/09 04:12:21;;;;;;;34.63;31.70;;;2.30;87.00;;;;;;5017491;28;20213;-78
2021/01/09 04:14:47;;;;;;;35.88;32.78;;;2.30;86.90;;;;;;5030185;28;20281;-78
2021/01/09 04:17:13;;;;;;;35.92;32.83;;;2.20;87.10;;;;;;5021213;28;20216;-78
2021/01/09 04:19:40;;;;;;;35.08;32.03;;;2.20;87.20;;;;;;5016117;28;20306;-77
2021/01/09 04:22:06;;;;;;;34.28;31.27;;;2.20;87.10;;;;;;5015826;28;20256;-78
2021/01/09 04:24:33;;;;;;;34.40;31.10;;;2.30;87.00;;;;;;5016654;28;20667;-78
2021/01/09 04:27:03;;;;;;;34.22;31.02;;;2.20;86.90;;;;;;5032434;28;20359;-78
2021/01/09 04:29:30;;;;;;;35.33;32.35;;;2.10;87.10;;;;;;5034910;28;20203;-78
2021/01/09 04:31:56;;;;;;;35.53;32.60;;;2.00;87.50;;;;;;5035121;28;20643;-77
2021/01/09 04:34:24;;;;;;;36.35;33.20;;;2.00;88.00;;;;;;5035173;28;20671;-78
2021/01/09 04:36:51;;;;;;;35.25;31.65;;;2.00;88.30;;;;;;5021097;28;20216;-78
2021/01/09 04:39:18;;;;;;;36.22;32.88;;;2.10;88.00;;;;;;5014703;28;20660;-78
2021/01/09 04:41:45;;;;;;;36.92;33.75;;;2.00;88.00;;;;;;5015114;28;20194;-77
2021/01/09 04:44:13;;;;;;;36.20;32.70;;;2.00;88.60;;;;;;5014898;28;20198;-78
2021/01/09 04:46:46;;;;;;;37.97;34.28;;;2.10;88.90;;;;;;5024013;28;20239;-77
2021/01/09 04:49:13;;;;;;;35.63;32.40;;;2.20;88.20;;;;;;5021217;28;20656;-77
2021/01/09 04:51:41;;;;;;;34.53;31.52;;;2.10;88.00;;;;;;5017364;28;20205;-77
2021/01/09 04:54:10;;;;;;;79.88;36.72;;;1.80;89.00;;;;;;5015006;28;20259;-77
2021/01/09 04:56:37;;;;;;;36.22;33.03;;;1.90;89.70;;;;;;5025237;28;20209;-77
2021/01/09 04:59:05;;;;;;;36.38;32.75;;;2.00;89.10;;;;;;5034209;28;20284;-77
2021/01/09 05:01:31;;;;;;;38.38;34.58;;;2.10;88.80;;;;;;5034285;28;20225;-77
2021/01/09 05:03:59;;;;;;;37.33;33.75;;;2.00;88.70;;;;;;5034390;28;20201;-77
2021/01/09 05:06:25;;;;;;;36.53;33.28;;;2.00;88.60;;;;;;5024250;28;20694;-77
2021/01/09 05:08:52;;;;;;;37.38;33.97;;;2.00;88.90;;;;;;5027437;28;20259;-77
2021/01/09 05:11:19;;;;;;;35.55;32.20;;;2.10;88.40;;;;;;5034128;28;20220;-77
2021/01/09 05:13:47;;;;;;;35.42;31.75;;;2.10;88.00;;;;;;5033960;28;20212;-78
2021/01/09 05:16:14;;;;;;;36.90;33.55;;;2.10;88.20;;;;;;5026092;28;20564;-77
2021/01/09 05:18:42;;;;;;;37.20;33.67;;;2.10;88.00;;;;;;5014138;28;20202;-78
2021/01/09 05:21:10;;;;;;;37.25;33.65;;;2.10;88.20;;;;;;5014029;28;20217;-77
2021/01/09 05:23:49;;;;;;;37.28;33.83;;;2.10;88.20;;;;;;5014110;28;20549;-78
2021/01/09 05:26:17;;;;;;;39.67;35.67;;;2.00;88.70;;;;;;5021145;28;20213;-78
2021/01/09 05:28:53;;;;;;;167.95;48.15;;;2.00;88.80;;;;;;5033811;28;20197;-78
2021/01/09 05:31:22;;;;;;;39.17;35.38;;;2.10;90.90;;;;;;5033747;28;20280;-78
2021/01/09 05:33:50;;;;;;;37.00;33.70;;;2.20;90.30;;;;;;5013828;28;20715;-78
2021/01/09 05:36:18;;;;;;;38.47;34.70;;;2.20;89.10;;;;;;5021047;28;20205;-77
2021/01/09 05:38:46;;;;;;;39.00;35.30;;;2.20;88.20;;;;;;5033009;28;20200;-78
2021/01/09 05:41:14;;;;;;;37.38;33.67;;;2.10;88.30;;;;;;5033004;28;20279;-78
2021/01/09 05:43:40;;;;;;;39.67;35.67;;;2.00;89.00;;;;;;5033542;28;20240;-77
2021/01/09 05:46:08;;;;;;;38.92;35.42;;;2.10;88.70;;;;;;5026840;28;20587;-78
2021/01/09 05:48:36;;;;;;;36.88;33.20;;;2.10;88.90;;;;;;5013738;28;20264;-78
2021/01/09 05:51:06;;;;;;;38.42;34.20;;;2.10;88.80;;;;;;5014522;28;20194;-78
2021/01/09 05:53:43;;;;;;;39.70;35.78;;;2.10;89.00;;;;;;5022964;28;20193;-78
2021/01/09 05:56:11;;;;;;;41.40;37.40;;;2.10;88.90;;;;;;5033338;28;20224;-77
2021/01/09 05:58:38;;;;;;;39.90;36.08;;;2.10;88.70;;;;;;5032851;28;20201;-78
2021/01/09 06:01:07;;;;;;;38.63;34.90;;;2.00;89.10;;;;;;5030127;28;20228;-78
2021/01/09 06:03:42;;;;;;;41.47;37.45;;;1.80;89.80;;;;;;5013409;28;20202;-78
2021/01/09 06:06:23;;;;;;;41.55;37.08;;;1.70;90.40;;;;;;5032550;28;20224;-78
2021/01/09 06:08:55;;;;;;;40.70;36.80;;;1.70;90.50;;;;;;5032839;28;20212;-78
2021/01/09 06:11:34;;;;;;;41.50;37.20;;;1.80;90.50;;;;;;5017242;28;20188;-77
2021/01/09 06:14:02;;;;;;;45.25;40.55;;;1.80;90.00;;;;;;5032925;28;20582;-78
2021/01/09 06:16:30;;;;;;;41.03;36.90;;;1.90;90.10;;;;;;5032974;28;20213;-78
2021/01/09 06:18:58;;;;;;;41.03;36.92;;;1.90;90.00;;;;;;5032911;28;20205;-77
2021/01/09 06:21:28;;;;;;;40.97;36.63;;;1.90;90.30;;;;;;5012998;28;20214;-78
2021/01/09 06:23:55;;;;;;;41.35;37.38;;;1.80;90.50;;;;;;5013203;28;20289;-78
2021/01/09 06:26:23;;;;;;;40.95;36.88;;;1.80;90.60;;;;;;5014222;28;20278;-78
2021/01/09 06:28:55;;;;;;;41.95;37.70;;;1.80;90.30;;;;;;5032636;28;20204;-78
2021/01/09 06:31:24;;;;;;;40.30;36.50;;;1.70;90.90;;;;;;5032718;28;20225;-78
2021/01/09 06:33:53;;;;;;;39.38;35.67;;;1.80;91.00;;;;;;5032771;28;20204;-78
2021/01/09 06:36:21;;;;;;;41.95;37.65;;;1.70;90.50;;;;;;5031208;28;20227;-78
2021/01/09 06:38:50;;;;;;;39.20;35.38;;;1.70;91.10;;;;;;5012924;28;20726;-78
2021/01/09 06:41:18;;;;;;;41.17;36.78;;;1.80;90.70;;;;;;5012876;28;20217;-78
2021/01/09 06:43:46;;;;;;;42.05;37.67;;;1.70;91.10;;;;;;5012881;28;20218;-78
2021/01/09 06:46:25;;;;;;;40.97;36.90;;;1.70;91.00;;;;;;5012774;28;20218;-78
2021/01/09 06:48:52;;;;;;;41.80;37.72;;;1.70;91.40;;;;;;5013093;28;20648;-78
2021/01/09 06:51:42;;;;;;;41.88;37.72;;;1.70;91.60;;;;;;5029535;28;20185;-77
2021/01/09 06:54:28;;;;;;;43.83;39.20;;;1.70;91.50;;;;;;5037985;28;20259;-77
2021/01/09 06:57:14;;;;;;;44.78;39.33;;;1.80;91.70;;;;;;5036197;28;20216;-77
2021/01/09 06:59:41;;;;;;;42.95;38.58;;;1.80;91.80;;;;;;5036545;28;20284;-78
2021/01/09 07:02:25;;;;;;;42.85;37.95;;;1.90;91.60;;;;;;5017418;28;20264;-77
2021/01/09 07:05:04;;;;;;;38.83;35.22;;;1.90;90.80;;;;;;5023423;28;20247;-78
2021/01/09 07:07:36;;;;;;;40.05;35.80;;;2.00;90.70;;;;;;5016324;28;20713;-77
2021/01/09 07:10:06;;;;;;;44.28;39.58;;;2.10;90.70;;;;;;5016752;28;20210;-77
2021/01/09 07:12:33;;;;;;;228.48;61.90;;;2.00;90.50;;;;;;5017785;28;20562;-77
2021/01/09 07:15:05;;;;;;;42.80;37.78;;;2.00;93.00;;;;;;5022502;28;20197;-77
2021/01/09 07:17:34;;;;;;;42.22;37.92;;;2.00;91.50;;;;;;5035705;28;20304;-78
2021/01/09 07:20:03;;;;;;;42.95;38.30;;;2.00;91.50;;;;;;5036043;28;20233;-77
2021/01/09 07:22:31;;;;;;;42.65;38.55;;;2.00;91.20;;;;;;5036082;28;20197;-77
2021/01/09 07:25:00;;;;;;;246.88;58.72;;;2.00;91.20;;;;;;5030521;28;20194;-77
2021/01/09 07:27:37;;;;;;;40.53;36.47;;;2.00;91.60;;;;;;5016057;28;20221;-77
2021/01/09 07:30:11;;;;;;;42.55;38.28;;;2.00;91.30;;;;;;5016055;28;20190;-77
2021/01/09 07:32:41;;;;;;;426.90;87.07;;;2.00;91.00;;;;;;5016227;28;20232;-78
2021/01/09 07:35:09;;;;;;;44.35;39.75;;;1.90;92.40;;;;;;5016217;28;20205;-77
2021/01/09 07:37:39;;;;;;;38.75;34.95;;;2.00;91.60;;;;;;5023202;28;20220;-77
2021/01/09 07:40:15;;;;;;;43.42;38.75;;;2.00;91.00;;;;;;5034032;28;20224;-77
2021/01/09 07:42:42;;;;;;;44.72;40.10;;;1.90;91.00;;;;;;5035427;28;20244;-77
2021/01/09 07:45:10;;;;;;;46.17;41.28;;;2.00;91.10;;;;;;5023650;28;20197;-77
2021/01/09 07:47:39;;;;;;;47.28;42.38;;;1.80;91.50;;;;;;5015715;28;20667;-77
2021/01/09 07:50:07;;;;;;;46.22;41.42;;;2.00;91.30;;;;;;5027179;28;20587;-78
2021/01/09 07:52:34;;;;;;;46.63;41.25;;;2.00;91.00;;;;;;5035367;28;20685;-78
2021/01/09 07:55:00;;;;;;;43.67;39.00;;;2.00;91.20;;;;;;5034039;28;20201;-78
2021/01/09 07:57:30;;;;;;;43.33;39.03;;;2.10;91.10;;;;;;5029258;28;20206;-77
2021/01/09 08:00:11;;;;;;;44.85;39.33;;;2.10;90.80;;;;;;5015703;28;20226;-78
2021/01/09 08:02:39;;;;;;;45.53;39.80;;;2.10;91.00;;;;;;5014854;28;20198;-77
2021/01/09 08:05:07;;;;;;;44.25;39.80;;;2.20;90.90;;;;;;5015708;28;20198;-77
2021/01/09 08:07:36;;;;;;;38.88;35.15;;;2.00;91.90;;;;;;5019326;28;20288;-78
2021/01/09 08:10:27;;;;;;;43.72;39.08;;;2.20;92.00;;;;;;5030089;28;20205;-78
2021/01/09 08:12:56;;;;;;;41.67;37.53;;;2.20;91.60;;;;;;5035365;28;20205;-77
2021/01/09 08:15:23;;;;;;;40.70;36.83;;;2.20;91.10;;;;;;5035222;28;20201;-78
2021/01/09 08:17:49;;;;;;;40.90;36.80;;;2.30;91.20;;;;;;5031938;28;20544;-78
2021/01/09 08:20:18;;;;;;;43.10;39.00;;;2.20;91.00;;;;;;5015224;28;20308;-78
2021/01/09 08:22:53;;;;;;;43.00;38.60;;;2.20;90.90;;;;;;5015147;28;20248;-77
2021/01/09 08:25:21;;;;;;;44.80;40.10;;;2.20;91.50;;;;;;5015289;28;20212;-78
2021/01/09 08:27:52;;;;;;;46.72;41.50;;;2.00;91.90;;;;;;5014916;28;20222;-77
2021/01/09 08:30:21;;;;;;;42.50;38.20;;;2.10;91.70;;;;;;5018017;28;20272;-78
2021/01/09 08:32:48;;;;;;;44.63;39.75;;;2.20;91.50;;;;;;5015976;28;20205;-77
2021/01/09 08:35:16;;;;;;;43.53;38.85;;;2.20;91.50;;;;;;5014978;28;20198;-78
2021/01/09 08:37:43;;;;;;;42.55;38.15;;;2.20;91.00;;;;;;5014723;28;20214;-77
2021/01/09 08:40:18;;;;;;;42.30;37.90;;;2.20;91.10;;;;;;5017592;28;20213;-78
2021/01/09 08:43:02;;;;;;;86.13;43.20;;;2.30;91.00;;;;;;5034667;28;20197;-77
2021/01/09 08:45:46;;;;;;;43.95;39.42;;;2.40;90.40;;;;;;5034464;28;20200;-77
2021/01/09 08:48:19;;;;;;;47.65;42.38;;;2.40;90.20;;;;;;5034154;28;20600;-78
2021/01/09 08:51:13;;;;;;;44.13;39.45;;;2.40;89.70;;;;;;5015074;28;20198;-78
2021/01/09 08:53:44;;;;;;;43.35;38.85;;;2.50;89.90;;;;;;4982472;28;20205;-78
2021/01/09 08:56:11;;;;;;;44.85;39.95;;;2.50;88.90;;;;;;5014376;28;20221;-78
2021/01/09 08:58:40;;;;;;;42.72;38.30;;;2.40;89.40;;;;;;5017624;28;20195;-77
2021/01/09 09:01:10;;;;;;;47.33;39.97;;;2.30;89.30;;;;;;5034380;28;20221;-77
2021/01/09 09:03:43;;;;;;;43.70;39.13;;;2.30;89.30;;;;;;5034195;28;20201;-77
2021/01/09 09:06:13;;;;;;;43.58;38.88;;;2.20;89.90;;;;;;5019250;28;20214;-78
2021/01/09 09:08:41;;;;;;;43.38;38.78;;;2.40;89.70;;;;;;5024487;28;20208;-77
2021/01/09 09:11:07;;;;;;;46.85;41.75;;;2.50;89.20;;;;;;5033171;28;20242;-78
2021/01/09 09:13:33;;;;;;;46.50;41.80;;;2.50;88.80;;;;;;5033668;28;20198;-78
2021/01/09 09:16:17;;;;;;;44.20;39.78;;;2.50;89.20;;;;;;5033012;28;20204;-78
2021/01/09 09:18:43;;;;;;;43.03;38.53;;;2.60;89.10;;;;;;5031173;28;20194;-78
2021/01/09 09:21:10;;;;;;;43.72;39.28;;;2.60;88.50;;;;;;5013924;28;20214;-78
2021/01/09 09:23:37;;;;;;;43.85;39.53;;;2.50;88.20;;;;;;5022060;28;20197;-78
2021/01/09 09:26:08;;;;;;;43.33;38.90;;;2.70;87.70;;;;;;5033692;28;20227;-78
2021/01/09 09:28:49;;;;;;;42.97;38.60;;;2.70;87.00;;;;;;5033838;28;20574;-78
2021/01/09 09:31:21;;;;;;;42.63;38.30;;;2.70;86.80;;;;;;5033747;28;20632;-78
2021/01/09 09:34:09;;;;;;;40.45;36.55;;;2.90;86.10;;;;;;5024277;28;20659;-78
2021/01/09 09:36:37;;;;;;;41.42;37.17;;;2.80;86.20;;;;;;5020639;28;20220;-78
2021/01/09 09:39:12;;;;;;;39.38;35.78;;;2.60;87.00;;;;;;5033586;28;20655;-78
2021/01/09 09:41:56;;;;;;;43.75;38.97;;;2.60;87.00;;;;;;5033468;28;20591;-78
2021/01/09 09:44:34;;;;;;;41.22;36.90;;;2.70;86.40;;;;;;5033522;28;20205;-78
2021/01/09 09:47:02;;;;;;;43.75;38.95;;;2.60;86.30;;;;;;5032975;28;20221;-77
2021/01/09 09:49:28;;;;;;;44.47;39.92;;;2.60;87.00;;;;;;5033133;28;20285;-78
2021/01/09 09:51:55;;;;;;;40.08;36.10;;;2.50;86.40;;;;;;5033292;28;20198;-78
2021/01/09 09:54:29;;;;;;;43.20;39.05;;;2.50;86.90;;;;;;5033012;28;20201;-78
2021/01/09 09:56:55;;;;;;;40.97;36.75;;;2.50;86.10;;;;;;5030385;28;20272;-78
2021/01/09 09:59:27;;;;;;;42.28;37.50;;;2.40;86.30;;;;;;5013382;28;20210;-78
2021/01/09 10:01:58;;;;;;;39.83;35.80;;;2.40;86.90;;;;;;5023719;28;20209;-78
2021/01/09 10:04:26;;;;;;;40.70;36.38;;;2.50;87.00;;;;;;5033232;28;20197;-78
2021/01/09 10:06:53;;;;;;;40.42;36.40;;;2.50;86.30;;;;;;5030363;28;20216;-77
2021/01/09 10:09:21;;;;;;;43.25;37.80;;;2.70;86.40;;;;;;5013456;28;20210;-77
2021/01/09 10:11:49;;;;;;;38.25;34.55;;;2.90;84.30;;;;;;5020715;28;20341;-78
2021/01/09 10:14:16;;;;;;;38.03;34.53;;;2.80;84.90;;;;;;5032761;28;20205;-78
2021/01/09 10:16:42;;;;;;;38.38;34.53;;;2.90;83.60;;;;;;5032664;28;20221;-78
2021/01/09 10:19:11;;;;;;;38.95;35.45;;;2.80;83.40;;;;;;5032807;28;20204;-78
2021/01/09 10:21:39;;;;;;;37.33;34.05;;;2.80;83.40;;;;;;5032817;28;20225;-78
2021/01/09 10:24:06;;;;;;;38.78;35.25;;;2.70;82.70;;;;;;5019985;28;20287;-78
2021/01/09 10:26:34;;;;;;;36.88;33.55;;;2.70;83.30;;;;;;5012401;28;20694;-78
2021/01/09 10:29:01;;;;;;;37.53;34.13;;;2.70;83.70;;;;;;5013273;28;20206;-78
2021/01/09 10:31:31;;;;;;;38.00;34.55;;;2.60;82.70;;;;;;5013140;28;20248;-78
2021/01/09 10:33:58;;;;;;;38.90;35.40;;;2.30;83.80;;;;;;5024634;28;20204;-78
2021/01/09 10:36:26;;;;;;;38.03;34.63;;;2.30;84.50;;;;;;5032213;28;20205;-78
2021/01/09 10:38:53;;;;;;;35.67;32.33;;;2.50;84.90;;;;;;5029686;28;20200;-78
2021/01/09 10:41:20;;;;;;;36.90;33.58;;;2.70;83.60;;;;;;5012882;28;20233;-78
2021/01/09 10:43:46;;;;;;;39.15;35.40;;;2.80;82.00;;;;;;5018178;28;20197;-78
2021/01/09 10:46:22;;;;;;;38.58;35.08;;;2.80;82.70;;;;;;5032350;28;20264;-78
2021/01/09 10:48:49;;;;;;;36.28;32.78;;;2.70;83.30;;;;;;5032884;28;20730;-78
2021/01/09 10:51:16;;;;;;;37.95;34.45;;;2.80;82.40;;;;;;5032995;28;20662;-78
2021/01/09 10:53:43;;;;;;;40.10;36.28;;;2.70;83.00;;;;;;5030664;28;20194;-78
2021/01/09 10:56:11;;;;;;;36.83;33.45;;;2.70;84.20;;;;;;5012983;28;20224;-78
2021/01/09 10:58:38;;;;;;;38.65;35.13;;;2.70;83.10;;;;;;5012653;28;20202;-78
2021/01/09 11:01:04;;;;;;;39.38;35.78;;;2.60;83.40;;;;;;5012798;28;20703;-78
2021/01/09 11:03:31;;;;;;;37.38;34.15;;;2.80;82.20;;;;;;5015194;28;20205;-78
2021/01/09 11:05:57;;;;;;;39.58;35.78;;;2.90;81.70;;;;;;5032347;28;20205;-78
2021/01/09 11:08:24;;;;;;;39.72;36.15;;;2.90;81.60;;;;;;5032324;28;20300;-78
2021/01/09 11:10:50;;;;;;;39.58;35.75;;;3.10;81.20;;;;;;5032666;28;20292;-78
2021/01/09 11:13:17;;;;;;;40.25;36.60;;;3.20;80.40;;;;;;5032106;28;20193;-78
2021/01/09 11:15:44;;;;;;;41.90;37.75;;;3.20;82.70;;;;;;5012400;28;20316;-78
2021/01/09 11:18:11;;;;;;;37.83;34.42;;;3.30;83.00;;;;;;5012759;28;20198;-78
2021/01/09 11:20:37;;;;;;;39.72;36.22;;;3.50;80.30;;;;;;5012752;28;20557;-78
2021/01/09 11:23:04;;;;;;;37.05;33.85;;;3.50;79.60;;;;;;5012725;28;20690;-78
2021/01/09 11:25:30;;;;;;;38.72;35.40;;;3.40;79.20;;;;;;5029932;28;20205;-79
2021/01/09 11:27:56;;;;;;;37.70;34.33;;;3.40;79.40;;;;;;5031963;28;20215;-78
2021/01/09 11:30:24;;;;;;;36.50;33.30;;;3.40;78.80;;;;;;5030114;28;20225;-78
2021/01/09 11:32:50;;;;;;;38.08;34.78;;;3.40;78.60;;;;;;5012716;28;20256;-78
2021/01/09 11:35:16;;;;;;;36.05;32.95;;;3.30;79.00;;;;;;5012597;28;20200;-78
2021/01/09 11:37:43;;;;;;;34.63;31.63;;;3.60;76.90;;;;;;5013169;28;20214;-78
2021/01/09 11:40:09;;;;;;;37.28;33.65;;;3.60;76.10;;;;;;5016044;28;20300;-78
2021/01/09 11:42:36;;;;;;;36.20;33.42;;;3.50;76.50;;;;;;5015872;28;20648;-78
2021/01/09 11:45:04;;;;;;;34.78;31.88;;;3.60;76.40;;;;;;5015856;28;20736;-78
2021/01/09 11:47:31;;;;;;;33.78;31.00;;;3.70;76.30;;;;;;5015762;28;20767;-78
2021/01/09 11:49:57;;;;;;;32.53;30.05;;;3.80;77.20;;;;;;5015800;28;20198;-78
2021/01/09 11:52:23;;;;;;;32.97;30.40;;;4.00;73.00;;;;;;5018331;28;20261;-78
2021/01/09 11:54:50;;;;;;;32.47;29.83;;;4.40;71.20;;;;;;5035641;28;20207;-78
2021/01/09 11:57:16;;;;;;;33.78;31.08;;;4.70;70.20;;;;;;5035341;28;20625;-78
2021/01/09 11:59:42;;;;;;;33.40;30.73;;;5.00;69.70;;;;;;5035393;28;20634;-78
2021/01/09 12:02:09;;;;;;;33.25;30.55;;;4.70;69.90;;;;;;5025800;28;20216;-78
2021/01/09 12:04:36;;;;;;;35.47;32.67;;;4.60;69.20;;;;;;5016084;28;20209;-78
2021/01/09 12:07:02;;;;;;;32.28;29.83;;;4.50;68.90;;;;;;5015560;28;20226;-77
2021/01/09 12:09:29;;;;;;;31.85;29.65;;;4.40;68.30;;;;;;5016728;28;20216;-78
2021/01/09 12:11:55;;;;;;;32.75;29.40;;;4.20;67.90;;;;;;5015659;28;20263;-78
2021/01/09 12:14:22;;;;;;;32.70;30.17;;;4.10;68.30;;;;;;5015562;28;20292;-77
2021/01/09 12:16:48;;;;;;;31.58;29.13;;;3.90;69.20;;;;;;5027921;28;20240;-77
2021/01/09 12:19:15;;;;;;;32.50;29.92;;;3.70;69.30;;;;;;5035101;28;20202;-78
2021/01/09 12:21:42;;;;;;;32.08;29.65;;;3.70;69.40;;;;;;5035069;28;20217;-78
2021/01/09 12:24:10;;;;;;;31.23;28.90;;;3.70;69.00;;;;;;5035228;28;20201;-78
2021/01/09 12:26:36;;;;;;;30.70;28.30;;;3.60;69.30;;;;;;5034524;28;20212;-77
2021/01/09 12:29:02;;;;;;;31.35;28.98;;;3.40;70.70;;;;;;5034728;28;20193;-77
2021/01/09 12:31:32;;;;;;;31.20;28.80;;;3.30;71.80;;;;;;5035086;28;20287;-78
2021/01/09 12:33:59;;;;;;;30.60;28.40;;;3.50;71.20;;;;;;5035265;28;20279;-77
2021/01/09 12:36:26;;;;;;;30.42;28.25;;;3.40;72.10;;;;;;5024932;28;20210;-77
2021/01/09 12:38:53;;;;;;;29.88;27.75;;;3.50;71.50;;;;;;5015540;28;20253;-78
2021/01/09 12:41:19;;;;;;;29.95;27.85;;;3.60;71.40;;;;;;5014952;28;20263;-77
2021/01/09 12:43:46;;;;;;;29.48;27.23;;;3.50;70.60;;;;;;5015118;28;20198;-77